sensor_id;sensor_type;location;lat;lon;timestamp;P1;durP1;ratioP1;P2;durP2;ratioP2
53646;SDS011;39550;52.230;5.194;2023-07-29T00:01:43;4.82;;;2.80;;
53646;SDS011;39550;52.230;5.194;2023-07-29T00:04:11;4.00;;;2.60;;
53646;SDS011;39550;52.230;5.194;2023-07-29T00:06:36;4.37;;;2.80;;
53646;SDS011;39550;52.230;5.194;2023-07-29T00:09:02;4.70;;;2.80;;
53646;SDS011;39550;52.230;5.194;2023-07-29T00:11:28;4.97;;;3.03;;
53646;SDS011;39550;52.230;5.194;2023-07-29T00:13:55;4.88;;;2.60;;
53646;SDS011;39550;52.230;5.194;2023-07-29T00:16:23;4.35;;;2.75;;
53646;SDS011;39550;52.230;5.194;2023-07-29T00:18:49;4.15;;;2.40;;
53646;SDS011;39550;52.230;5.194;2023-07-29T00:21:15;4.18;;;2.50;;
53646;SDS011;39550;52.230;5.194;2023-07-29T00:23:41;3.97;;;2.47;;
53646;SDS011;39550;52.230;5.194;2023-07-29T00:26:12;4.03;;;2.53;;
53646;SDS011;39550;52.230;5.194;2023-07-29T00:28:38;5.03;;;3.00;;
53646;SDS011;39550;52.230;5.194;2023-07-29T00:31:04;4.13;;;2.67;;
53646;SDS011;39550;52.230;5.194;2023-07-29T00:33:30;4.30;;;2.50;;
53646;SDS011;39550;52.230;5.194;2023-07-29T00:35:55;4.63;;;2.40;;
53646;SDS011;39550;52.230;5.194;2023-07-29T00:38:21;4.43;;;2.70;;
53646;SDS011;39550;52.230;5.194;2023-07-29T00:40:47;3.85;;;2.38;;
53646;SDS011;39550;52.230;5.194;2023-07-29T00:43:16;4.25;;;2.42;;
53646;SDS011;39550;52.230;5.194;2023-07-29T00:45:44;4.50;;;2.40;;
53646;SDS011;39550;52.230;5.194;2023-07-29T00:48:12;4.07;;;2.40;;
53646;SDS011;39550;52.230;5.194;2023-07-29T00:50:39;4.10;;;2.50;;
53646;SDS011;39550;52.230;5.194;2023-07-29T00:53:05;4.03;;;2.28;;
53646;SDS011;39550;52.230;5.194;2023-07-29T00:55:31;3.85;;;2.22;;
53646;SDS011;39550;52.230;5.194;2023-07-29T00:57:57;4.00;;;2.58;;
53646;SDS011;39550;52.230;5.194;2023-07-29T01:00:23;4.15;;;2.42;;
53646;SDS011;39550;52.230;5.194;2023-07-29T01:02:49;5.80;;;2.58;;
53646;SDS011;39550;52.230;5.194;2023-07-29T01:05:17;4.05;;;2.30;;
53646;SDS011;39550;52.230;5.194;2023-07-29T01:07:59;3.58;;;2.20;;
53646;SDS011;39550;52.230;5.194;2023-07-29T01:10:53;3.70;;;2.30;;
53646;SDS011;39550;52.230;5.194;2023-07-29T01:13:37;4.10;;;2.40;;
53646;SDS011;39550;52.230;5.194;2023-07-29T01:16:11;4.05;;;2.45;;
53646;SDS011;39550;52.230;5.194;2023-07-29T01:18:45;4.68;;;2.78;;
53646;SDS011;39550;52.230;5.194;2023-07-29T01:21:16;4.07;;;2.53;;
53646;SDS011;39550;52.230;5.194;2023-07-29T01:23:52;4.00;;;2.20;;
53646;SDS011;39550;52.230;5.194;2023-07-29T01:26:23;3.92;;;2.30;;
53646;SDS011;39550;52.230;5.194;2023-07-29T01:28:49;4.35;;;2.38;;
53646;SDS011;39550;52.230;5.194;2023-07-29T01:31:35;5.38;;;2.97;;
53646;SDS011;39550;52.230;5.194;2023-07-29T01:34:24;4.28;;;2.17;;
53646;SDS011;39550;52.230;5.194;2023-07-29T01:37:00;3.40;;;2.10;;
53646;SDS011;39550;52.230;5.194;2023-07-29T01:39:34;4.18;;;2.40;;
53646;SDS011;39550;52.230;5.194;2023-07-29T01:42:05;3.95;;;2.33;;
53646;SDS011;39550;52.230;5.194;2023-07-29T01:44:39;4.28;;;2.53;;
53646;SDS011;39550;52.230;5.194;2023-07-29T01:47:07;4.95;;;2.88;;
53646;SDS011;39550;52.230;5.194;2023-07-29T01:49:35;3.85;;;2.28;;
53646;SDS011;39550;52.230;5.194;2023-07-29T01:52:05;3.95;;;2.30;;
53646;SDS011;39550;52.230;5.194;2023-07-29T01:54:34;3.55;;;2.17;;
53646;SDS011;39550;52.230;5.194;2023-07-29T01:57:03;4.43;;;2.50;;
53646;SDS011;39550;52.230;5.194;2023-07-29T01:59:28;4.95;;;2.53;;
53646;SDS011;39550;52.230;5.194;2023-07-29T02:01:54;4.65;;;2.42;;
53646;SDS011;39550;52.230;5.194;2023-07-29T02:04:20;3.85;;;2.30;;
53646;SDS011;39550;52.230;5.194;2023-07-29T02:06:45;3.75;;;2.13;;
53646;SDS011;39550;52.230;5.194;2023-07-29T02:09:11;3.88;;;2.30;;
53646;SDS011;39550;52.230;5.194;2023-07-29T02:11:37;4.00;;;2.42;;
53646;SDS011;39550;52.230;5.194;2023-07-29T02:14:02;3.80;;;2.40;;
53646;SDS011;39550;52.230;5.194;2023-07-29T02:16:28;3.65;;;2.20;;
53646;SDS011;39550;52.230;5.194;2023-07-29T02:18:54;4.88;;;2.38;;
53646;SDS011;39550;52.230;5.194;2023-07-29T02:21:19;3.67;;;2.30;;
53646;SDS011;39550;52.230;5.194;2023-07-29T02:23:48;3.50;;;2.10;;
53646;SDS011;39550;52.230;5.194;2023-07-29T02:26:13;3.97;;;2.20;;
53646;SDS011;39550;52.230;5.194;2023-07-29T02:28:47;3.90;;;2.35;;
53646;SDS011;39550;52.230;5.194;2023-07-29T02:31:17;4.90;;;2.20;;
53646;SDS011;39550;52.230;5.194;2023-07-29T02:33:42;5.90;;;2.55;;
53646;SDS011;39550;52.230;5.194;2023-07-29T02:36:09;4.57;;;2.33;;
53646;SDS011;39550;52.230;5.194;2023-07-29T02:38:34;4.00;;;2.45;;
53646;SDS011;39550;52.230;5.194;2023-07-29T02:41:00;3.70;;;2.22;;
53646;SDS011;39550;52.230;5.194;2023-07-29T02:43:25;4.30;;;2.53;;
53646;SDS011;39550;52.230;5.194;2023-07-29T02:45:51;5.68;;;2.53;;
53646;SDS011;39550;52.230;5.194;2023-07-29T02:48:16;5.10;;;2.50;;
53646;SDS011;39550;52.230;5.194;2023-07-29T02:50:42;4.00;;;2.30;;
53646;SDS011;39550;52.230;5.194;2023-07-29T02:53:08;4.22;;;2.60;;
53646;SDS011;39550;52.230;5.194;2023-07-29T02:55:36;4.07;;;2.13;;
53646;SDS011;39550;52.230;5.194;2023-07-29T02:58:04;4.68;;;2.45;;
53646;SDS011;39550;52.230;5.194;2023-07-29T03:00:33;4.68;;;2.50;;
53646;SDS011;39550;52.230;5.194;2023-07-29T03:03:01;5.43;;;2.88;;
53646;SDS011;39550;52.230;5.194;2023-07-29T03:05:27;3.95;;;2.40;;
53646;SDS011;39550;52.230;5.194;2023-07-29T03:07:53;4.10;;;2.50;;
53646;SDS011;39550;52.230;5.194;2023-07-29T03:10:19;4.32;;;2.40;;
53646;SDS011;39550;52.230;5.194;2023-07-29T03:12:45;5.57;;;2.90;;
53646;SDS011;39550;52.230;5.194;2023-07-29T03:15:11;5.78;;;2.58;;
53646;SDS011;39550;52.230;5.194;2023-07-29T03:17:37;5.97;;;3.10;;
53646;SDS011;39550;52.230;5.194;2023-07-29T03:20:03;4.80;;;2.78;;
53646;SDS011;39550;52.230;5.194;2023-07-29T03:22:31;4.50;;;2.60;;
53646;SDS011;39550;52.230;5.194;2023-07-29T03:24:57;6.45;;;2.65;;
53646;SDS011;39550;52.230;5.194;2023-07-29T03:27:22;4.85;;;2.90;;
53646;SDS011;39550;52.230;5.194;2023-07-29T03:29:48;4.30;;;2.70;;
53646;SDS011;39550;52.230;5.194;2023-07-29T03:32:14;4.80;;;2.63;;
53646;SDS011;39550;52.230;5.194;2023-07-29T03:34:39;5.03;;;2.75;;
53646;SDS011;39550;52.230;5.194;2023-07-29T03:37:05;5.05;;;2.83;;
53646;SDS011;39550;52.230;5.194;2023-07-29T03:39:31;4.85;;;2.85;;
53646;SDS011;39550;52.230;5.194;2023-07-29T03:42:00;5.20;;;2.63;;
53646;SDS011;39550;52.230;5.194;2023-07-29T03:44:25;4.63;;;2.60;;
53646;SDS011;39550;52.230;5.194;2023-07-29T03:46:51;4.95;;;2.47;;
53646;SDS011;39550;52.230;5.194;2023-07-29T03:49:17;5.20;;;2.88;;
53646;SDS011;39550;52.230;5.194;2023-07-29T03:51:42;4.72;;;2.92;;
53646;SDS011;39550;52.230;5.194;2023-07-29T03:54:08;5.05;;;2.80;;
53646;SDS011;39550;52.230;5.194;2023-07-29T03:56:33;4.90;;;2.78;;
53646;SDS011;39550;52.230;5.194;2023-07-29T03:59:06;4.55;;;2.50;;
53646;SDS011;39550;52.230;5.194;2023-07-29T04:01:32;4.55;;;2.60;;
53646;SDS011;39550;52.230;5.194;2023-07-29T04:04:00;6.55;;;2.85;;
53646;SDS011;39550;52.230;5.194;2023-07-29T04:06:25;5.75;;;3.15;;
53646;SDS011;39550;52.230;5.194;2023-07-29T04:08:51;4.07;;;2.50;;
53646;SDS011;39550;52.230;5.194;2023-07-29T04:11:17;4.30;;;2.70;;
53646;SDS011;39550;52.230;5.194;2023-07-29T04:13:42;4.40;;;2.58;;
53646;SDS011;39550;52.230;5.194;2023-07-29T04:16:07;4.80;;;2.53;;
53646;SDS011;39550;52.230;5.194;2023-07-29T04:18:33;4.47;;;2.40;;
53646;SDS011;39550;52.230;5.194;2023-07-29T04:21:02;4.13;;;2.50;;
53646;SDS011;39550;52.230;5.194;2023-07-29T04:23:27;4.60;;;2.60;;
53646;SDS011;39550;52.230;5.194;2023-07-29T04:25:53;5.70;;;2.85;;
53646;SDS011;39550;52.230;5.194;2023-07-29T04:28:18;5.15;;;2.85;;
53646;SDS011;39550;52.230;5.194;2023-07-29T04:30:44;4.50;;;2.65;;
53646;SDS011;39550;52.230;5.194;2023-07-29T04:33:09;5.40;;;2.60;;
53646;SDS011;39550;52.230;5.194;2023-07-29T04:35:35;4.60;;;2.78;;
53646;SDS011;39550;52.230;5.194;2023-07-29T04:38:00;6.22;;;2.75;;
53646;SDS011;39550;52.230;5.194;2023-07-29T04:40:26;5.38;;;2.67;;
53646;SDS011;39550;52.230;5.194;2023-07-29T04:42:54;5.53;;;2.88;;
53646;SDS011;39550;52.230;5.194;2023-07-29T04:45:19;4.78;;;2.60;;
53646;SDS011;39550;52.230;5.194;2023-07-29T04:47:45;4.43;;;2.47;;
53646;SDS011;39550;52.230;5.194;2023-07-29T04:50:10;5.97;;;3.10;;
53646;SDS011;39550;52.230;5.194;2023-07-29T04:52:45;4.65;;;2.60;;
53646;SDS011;39550;52.230;5.194;2023-07-29T04:55:10;3.75;;;2.30;;
53646;SDS011;39550;52.230;5.194;2023-07-29T04:57:36;4.57;;;2.67;;
53646;SDS011;39550;52.230;5.194;2023-07-29T05:00:04;4.60;;;2.50;;
53646;SDS011;39550;52.230;5.194;2023-07-29T05:02:30;7.13;;;2.80;;
53646;SDS011;39550;52.230;5.194;2023-07-29T05:04:55;4.15;;;2.30;;
53646;SDS011;39550;52.230;5.194;2023-07-29T05:07:23;4.50;;;2.22;;
53646;SDS011;39550;52.230;5.194;2023-07-29T05:09:49;4.68;;;2.60;;
53646;SDS011;39550;52.230;5.194;2023-07-29T05:12:14;4.68;;;2.72;;
53646;SDS011;39550;52.230;5.194;2023-07-29T05:14:40;5.10;;;2.55;;
53646;SDS011;39550;52.230;5.194;2023-07-29T05:17:05;4.53;;;2.60;;
53646;SDS011;39550;52.230;5.194;2023-07-29T05:19:31;5.40;;;2.83;;
53646;SDS011;39550;52.230;5.194;2023-07-29T05:21:56;4.82;;;2.70;;
53646;SDS011;39550;52.230;5.194;2023-07-29T05:24:22;4.22;;;2.70;;
53646;SDS011;39550;52.230;5.194;2023-07-29T05:26:48;4.30;;;2.83;;
53646;SDS011;39550;52.230;5.194;2023-07-29T05:29:14;6.50;;;2.72;;
53646;SDS011;39550;52.230;5.194;2023-07-29T05:31:40;5.18;;;3.05;;
53646;SDS011;39550;52.230;5.194;2023-07-29T05:34:05;4.38;;;2.53;;
53646;SDS011;39550;52.230;5.194;2023-07-29T05:36:31;6.47;;;3.03;;
53646;SDS011;39550;52.230;5.194;2023-07-29T05:38:56;4.55;;;2.78;;
53646;SDS011;39550;52.230;5.194;2023-07-29T05:41:22;4.68;;;2.72;;
53646;SDS011;39550;52.230;5.194;2023-07-29T05:43:47;4.38;;;2.60;;
53646;SDS011;39550;52.230;5.194;2023-07-29T05:46:13;5.57;;;3.00;;
53646;SDS011;39550;52.230;5.194;2023-07-29T05:48:38;4.60;;;2.30;;
53646;SDS011;39550;52.230;5.194;2023-07-29T05:51:03;4.30;;;2.45;;
53646;SDS011;39550;52.230;5.194;2023-07-29T05:53:30;4.72;;;2.60;;
53646;SDS011;39550;52.230;5.194;2023-07-29T05:55:56;4.55;;;2.70;;
53646;SDS011;39550;52.230;5.194;2023-07-29T05:58:21;6.28;;;2.80;;
53646;SDS011;39550;52.230;5.194;2023-07-29T06:00:47;5.47;;;2.85;;
53646;SDS011;39550;52.230;5.194;2023-07-29T06:03:12;5.18;;;2.88;;
53646;SDS011;39550;52.230;5.194;2023-07-29T06:05:38;6.18;;;2.75;;
53646;SDS011;39550;52.230;5.194;2023-07-29T06:08:04;4.28;;;2.63;;
53646;SDS011;39550;52.230;5.194;2023-07-29T06:10:29;5.75;;;2.63;;
53646;SDS011;39550;52.230;5.194;2023-07-29T06:12:54;5.13;;;2.70;;
53646;SDS011;39550;52.230;5.194;2023-07-29T06:15:20;4.60;;;2.80;;
53646;SDS011;39550;52.230;5.194;2023-07-29T06:17:47;5.00;;;2.72;;
53646;SDS011;39550;52.230;5.194;2023-07-29T06:20:13;4.85;;;2.92;;
53646;SDS011;39550;52.230;5.194;2023-07-29T06:22:38;4.97;;;2.90;;
53646;SDS011;39550;52.230;5.194;2023-07-29T06:25:04;4.70;;;2.83;;
53646;SDS011;39550;52.230;5.194;2023-07-29T06:27:29;5.10;;;2.95;;
53646;SDS011;39550;52.230;5.194;2023-07-29T06:29:54;5.07;;;2.70;;
53646;SDS011;39550;52.230;5.194;2023-07-29T06:32:20;4.57;;;2.63;;
53646;SDS011;39550;52.230;5.194;2023-07-29T06:34:45;5.13;;;2.95;;
53646;SDS011;39550;52.230;5.194;2023-07-29T06:37:11;4.47;;;2.85;;
53646;SDS011;39550;52.230;5.194;2023-07-29T06:39:36;4.28;;;2.65;;
53646;SDS011;39550;52.230;5.194;2023-07-29T06:42:02;4.18;;;2.67;;
53646;SDS011;39550;52.230;5.194;2023-07-29T06:44:28;5.15;;;3.15;;
53646;SDS011;39550;52.230;5.194;2023-07-29T06:46:53;4.72;;;2.75;;
53646;SDS011;39550;52.230;5.194;2023-07-29T06:49:18;5.05;;;2.80;;
53646;SDS011;39550;52.230;5.194;2023-07-29T06:51:44;4.45;;;2.67;;
53646;SDS011;39550;52.230;5.194;2023-07-29T06:54:09;6.38;;;2.80;;
53646;SDS011;39550;52.230;5.194;2023-07-29T06:56:35;6.57;;;4.10;;
53646;SDS011;39550;52.230;5.194;2023-07-29T06:59:00;5.03;;;2.72;;
53646;SDS011;39550;52.230;5.194;2023-07-29T07:01:29;5.32;;;2.97;;
53646;SDS011;39550;52.230;5.194;2023-07-29T07:03:55;6.30;;;3.03;;
53646;SDS011;39550;52.230;5.194;2023-07-29T07:06:23;7.88;;;3.45;;
53646;SDS011;39550;52.230;5.194;2023-07-29T07:08:49;5.53;;;3.25;;
53646;SDS011;39550;52.230;5.194;2023-07-29T07:11:15;5.07;;;2.80;;
53646;SDS011;39550;52.230;5.194;2023-07-29T07:13:41;7.07;;;3.45;;
53646;SDS011;39550;52.230;5.194;2023-07-29T07:16:06;5.30;;;2.95;;
53646;SDS011;39550;52.230;5.194;2023-07-29T07:18:32;5.72;;;3.20;;
53646;SDS011;39550;52.230;5.194;2023-07-29T07:20:57;5.40;;;2.80;;
53646;SDS011;39550;52.230;5.194;2023-07-29T07:23:23;5.95;;;3.25;;
53646;SDS011;39550;52.230;5.194;2023-07-29T07:25:48;6.57;;;3.33;;
53646;SDS011;39550;52.230;5.194;2023-07-29T07:28:13;5.40;;;2.78;;
53646;SDS011;39550;52.230;5.194;2023-07-29T07:30:39;6.00;;;3.15;;
53646;SDS011;39550;52.230;5.194;2023-07-29T07:33:06;5.53;;;2.88;;
53646;SDS011;39550;52.230;5.194;2023-07-29T07:35:31;5.78;;;3.10;;
53646;SDS011;39550;52.230;5.194;2023-07-29T07:37:57;6.05;;;3.10;;
53646;SDS011;39550;52.230;5.194;2023-07-29T07:40:24;5.53;;;3.05;;
53646;SDS011;39550;52.230;5.194;2023-07-29T07:42:49;5.28;;;2.80;;
53646;SDS011;39550;52.230;5.194;2023-07-29T07:45:14;4.85;;;3.13;;
53646;SDS011;39550;52.230;5.194;2023-07-29T07:47:40;5.30;;;3.05;;
53646;SDS011;39550;52.230;5.194;2023-07-29T07:50:06;5.45;;;3.15;;
53646;SDS011;39550;52.230;5.194;2023-07-29T07:52:31;5.47;;;3.10;;
53646;SDS011;39550;52.230;5.194;2023-07-29T07:54:57;6.32;;;3.72;;
53646;SDS011;39550;52.230;5.194;2023-07-29T07:57:22;5.75;;;3.45;;
53646;SDS011;39550;52.230;5.194;2023-07-29T07:59:48;5.32;;;3.10;;
53646;SDS011;39550;52.230;5.194;2023-07-29T08:02:14;5.38;;;3.13;;
53646;SDS011;39550;52.230;5.194;2023-07-29T08:04:39;4.75;;;3.17;;
53646;SDS011;39550;52.230;5.194;2023-07-29T08:07:05;6.13;;;3.60;;
53646;SDS011;39550;52.230;5.194;2023-07-29T08:09:30;6.32;;;3.90;;
53646;SDS011;39550;52.230;5.194;2023-07-29T08:11:56;4.82;;;3.00;;
53646;SDS011;39550;52.230;5.194;2023-07-29T08:14:21;5.88;;;3.38;;
53646;SDS011;39550;52.230;5.194;2023-07-29T08:16:47;5.30;;;3.30;;
53646;SDS011;39550;52.230;5.194;2023-07-29T08:19:12;5.75;;;3.40;;
53646;SDS011;39550;52.230;5.194;2023-07-29T08:21:38;4.85;;;3.03;;
53646;SDS011;39550;52.230;5.194;2023-07-29T08:24:03;7.32;;;3.80;;
53646;SDS011;39550;52.230;5.194;2023-07-29T08:26:29;6.88;;;3.83;;
53646;SDS011;39550;52.230;5.194;2023-07-29T08:28:54;5.82;;;3.70;;
53646;SDS011;39550;52.230;5.194;2023-07-29T08:31:20;5.88;;;3.75;;
53646;SDS011;39550;52.230;5.194;2023-07-29T08:33:45;5.32;;;3.85;;
53646;SDS011;39550;52.230;5.194;2023-07-29T08:36:11;5.47;;;3.20;;
53646;SDS011;39550;52.230;5.194;2023-07-29T08:38:37;5.63;;;3.63;;
53646;SDS011;39550;52.230;5.194;2023-07-29T08:41:16;4.90;;;3.30;;
53646;SDS011;39550;52.230;5.194;2023-07-29T08:44:01;5.40;;;3.45;;
53646;SDS011;39550;52.230;5.194;2023-07-29T08:46:29;5.28;;;3.50;;
53646;SDS011;39550;52.230;5.194;2023-07-29T08:48:54;5.80;;;3.40;;
53646;SDS011;39550;52.230;5.194;2023-07-29T08:51:32;5.30;;;3.47;;
53646;SDS011;39550;52.230;5.194;2023-07-29T08:54:01;5.68;;;3.42;;
53646;SDS011;39550;52.230;5.194;2023-07-29T08:56:30;5.03;;;3.22;;
53646;SDS011;39550;52.230;5.194;2023-07-29T08:58:55;4.43;;;2.95;;
53646;SDS011;39550;52.230;5.194;2023-07-29T09:01:21;5.57;;;3.28;;
53646;SDS011;39550;52.230;5.194;2023-07-29T09:03:46;7.80;;;3.70;;
53646;SDS011;39550;52.230;5.194;2023-07-29T09:06:12;5.68;;;3.40;;
53646;SDS011;39550;52.230;5.194;2023-07-29T09:08:42;5.28;;;3.70;;
53646;SDS011;39550;52.230;5.194;2023-07-29T09:14:01;5.18;;;3.47;;
53646;SDS011;39550;52.230;5.194;2023-07-29T09:16:26;6.90;;;3.40;;
53646;SDS011;39550;52.230;5.194;2023-07-29T09:19:15;4.88;;;3.10;;
53646;SDS011;39550;52.230;5.194;2023-07-29T09:21:41;5.88;;;3.50;;
53646;SDS011;39550;52.230;5.194;2023-07-29T09:24:07;5.95;;;3.17;;
53646;SDS011;39550;52.230;5.194;2023-07-29T09:26:36;5.03;;;3.22;;
53646;SDS011;39550;52.230;5.194;2023-07-29T09:29:02;5.55;;;3.40;;
53646;SDS011;39550;52.230;5.194;2023-07-29T09:31:28;5.72;;;3.35;;
53646;SDS011;39550;52.230;5.194;2023-07-29T09:38:52;4.60;;;3.00;;
53646;SDS011;39550;52.230;5.194;2023-07-29T09:41:25;4.82;;;2.97;;
53646;SDS011;39550;52.230;5.194;2023-07-29T09:44:16;6.95;;;3.20;;
53646;SDS011;39550;52.230;5.194;2023-07-29T09:46:47;5.70;;;3.28;;
53646;SDS011;39550;52.230;5.194;2023-07-29T09:49:23;7.03;;;3.25;;
53646;SDS011;39550;52.230;5.194;2023-07-29T09:51:48;5.50;;;3.40;;
53646;SDS011;39550;52.230;5.194;2023-07-29T09:54:14;5.70;;;3.40;;
53646;SDS011;39550;52.230;5.194;2023-07-29T09:56:42;5.47;;;3.10;;
53646;SDS011;39550;52.230;5.194;2023-07-29T09:59:12;5.07;;;3.10;;
53646;SDS011;39550;52.230;5.194;2023-07-29T10:01:40;5.28;;;3.00;;
53646;SDS011;39550;52.230;5.194;2023-07-29T10:04:06;4.72;;;2.85;;
53646;SDS011;39550;52.230;5.194;2023-07-29T10:09:40;6.30;;;3.25;;
53646;SDS011;39550;52.230;5.194;2023-07-29T10:12:15;4.93;;;3.50;;
53646;SDS011;39550;52.230;5.194;2023-07-29T10:14:41;5.88;;;3.08;;
53646;SDS011;39550;52.230;5.194;2023-07-29T10:17:13;4.57;;;2.90;;
53646;SDS011;39550;52.230;5.194;2023-07-29T10:19:41;6.32;;;3.10;;
53646;SDS011;39550;52.230;5.194;2023-07-29T10:22:08;7.55;;;3.05;;
53646;SDS011;39550;52.230;5.194;2023-07-29T10:24:38;6.63;;;3.50;;
53646;SDS011;39550;52.230;5.194;2023-07-29T10:27:08;6.47;;;3.38;;
53646;SDS011;39550;52.230;5.194;2023-07-29T10:29:38;5.53;;;3.00;;
53646;SDS011;39550;52.230;5.194;2023-07-29T10:32:06;5.90;;;3.00;;
53646;SDS011;39550;52.230;5.194;2023-07-29T10:37:01;5.13;;;3.20;;
53646;SDS011;39550;52.230;5.194;2023-07-29T10:39:27;4.97;;;3.10;;
53646;SDS011;39550;52.230;5.194;2023-07-29T10:42:00;14.52;;;3.63;;
53646;SDS011;39550;52.230;5.194;2023-07-29T10:49:42;5.60;;;3.20;;
53646;SDS011;39550;52.230;5.194;2023-07-29T10:52:15;4.65;;;3.22;;
53646;SDS011;39550;52.230;5.194;2023-07-29T10:54:42;4.85;;;3.03;;
53646;SDS011;39550;52.230;5.194;2023-07-29T10:57:33;5.90;;;3.42;;
53646;SDS011;39550;52.230;5.194;2023-07-29T10:59:58;5.82;;;3.53;;
53646;SDS011;39550;52.230;5.194;2023-07-29T11:02:29;5.50;;;3.17;;
53646;SDS011;39550;52.230;5.194;2023-07-29T11:04:59;5.65;;;2.95;;
53646;SDS011;39550;52.230;5.194;2023-07-29T11:07:30;4.65;;;2.80;;
53646;SDS011;39550;52.230;5.194;2023-07-29T11:12:38;6.40;;;3.47;;
53646;SDS011;39550;52.230;5.194;2023-07-29T11:17:36;5.88;;;3.53;;
53646;SDS011;39550;52.230;5.194;2023-07-29T11:20:04;5.30;;;3.73;;
53646;SDS011;39550;52.230;5.194;2023-07-29T11:22:32;5.05;;;3.55;;
53646;SDS011;39550;52.230;5.194;2023-07-29T11:24:58;5.35;;;3.53;;
53646;SDS011;39550;52.230;5.194;2023-07-29T11:27:23;5.65;;;3.28;;
53646;SDS011;39550;52.230;5.194;2023-07-29T11:29:49;6.18;;;3.90;;
53646;SDS011;39550;52.230;5.194;2023-07-29T11:32:17;6.50;;;4.10;;
53646;SDS011;39550;52.230;5.194;2023-07-29T11:34:43;7.00;;;4.30;;
53646;SDS011;39550;52.230;5.194;2023-07-29T11:37:10;5.15;;;3.47;;
53646;SDS011;39550;52.230;5.194;2023-07-29T11:39:43;5.32;;;3.40;;
53646;SDS011;39550;52.230;5.194;2023-07-29T11:42:15;9.68;;;4.00;;
53646;SDS011;39550;52.230;5.194;2023-07-29T11:44:41;5.50;;;3.50;;
53646;SDS011;39550;52.230;5.194;2023-07-29T11:47:07;6.45;;;3.90;;
53646;SDS011;39550;52.230;5.194;2023-07-29T11:49:34;5.32;;;3.25;;
53646;SDS011;39550;52.230;5.194;2023-07-29T11:52:01;5.05;;;3.30;;
53646;SDS011;39550;52.230;5.194;2023-07-29T11:54:28;4.70;;;3.30;;
53646;SDS011;39550;52.230;5.194;2023-07-29T11:56:54;4.65;;;3.22;;
53646;SDS011;39550;52.230;5.194;2023-07-29T11:59:20;4.90;;;3.28;;
53646;SDS011;39550;52.230;5.194;2023-07-29T12:01:46;6.45;;;3.40;;
53646;SDS011;39550;52.230;5.194;2023-07-29T12:04:11;6.32;;;3.65;;
53646;SDS011;39550;52.230;5.194;2023-07-29T12:06:37;6.05;;;3.40;;
53646;SDS011;39550;52.230;5.194;2023-07-29T12:09:04;5.63;;;3.08;;
53646;SDS011;39550;52.230;5.194;2023-07-29T12:11:32;5.30;;;2.97;;
53646;SDS011;39550;52.230;5.194;2023-07-29T12:13:59;4.53;;;3.30;;
53646;SDS011;39550;52.230;5.194;2023-07-29T12:16:25;6.85;;;3.42;;
53646;SDS011;39550;52.230;5.194;2023-07-29T12:18:50;4.68;;;3.00;;
53646;SDS011;39550;52.230;5.194;2023-07-29T12:21:20;5.43;;;3.13;;
53646;SDS011;39550;52.230;5.194;2023-07-29T12:23:46;6.22;;;3.45;;
53646;SDS011;39550;52.230;5.194;2023-07-29T12:26:11;5.28;;;2.90;;
53646;SDS011;39550;52.230;5.194;2023-07-29T12:28:37;4.70;;;3.20;;
53646;SDS011;39550;52.230;5.194;2023-07-29T12:31:06;4.13;;;2.95;;
53646;SDS011;39550;52.230;5.194;2023-07-29T12:33:34;4.05;;;2.80;;
53646;SDS011;39550;52.230;5.194;2023-07-29T12:36:02;5.25;;;3.17;;
53646;SDS011;39550;52.230;5.194;2023-07-29T12:38:28;5.03;;;3.38;;
53646;SDS011;39550;52.230;5.194;2023-07-29T12:40:54;5.00;;;3.30;;
53646;SDS011;39550;52.230;5.194;2023-07-29T12:43:21;4.47;;;2.90;;
53646;SDS011;39550;52.230;5.194;2023-07-29T12:45:49;6.05;;;3.10;;
53646;SDS011;39550;52.230;5.194;2023-07-29T12:48:14;5.75;;;3.28;;
53646;SDS011;39550;52.230;5.194;2023-07-29T12:50:40;4.93;;;3.05;;
53646;SDS011;39550;52.230;5.194;2023-07-29T12:53:08;5.18;;;2.80;;
53646;SDS011;39550;52.230;5.194;2023-07-29T12:55:37;4.43;;;3.13;;
53646;SDS011;39550;52.230;5.194;2023-07-29T12:58:03;5.13;;;2.97;;
53646;SDS011;39550;52.230;5.194;2023-07-29T13:00:28;4.00;;;2.63;;
53646;SDS011;39550;52.230;5.194;2023-07-29T13:02:54;4.30;;;2.90;;
53646;SDS011;39550;52.230;5.194;2023-07-29T13:05:19;4.10;;;3.10;;
53646;SDS011;39550;52.230;5.194;2023-07-29T13:07:45;4.40;;;2.85;;
53646;SDS011;39550;52.230;5.194;2023-07-29T13:10:11;5.35;;;3.00;;
53646;SDS011;39550;52.230;5.194;2023-07-29T13:12:36;4.18;;;2.60;;
53646;SDS011;39550;52.230;5.194;2023-07-29T13:15:02;6.05;;;3.20;;
53646;SDS011;39550;52.230;5.194;2023-07-29T13:17:27;4.50;;;3.05;;
53646;SDS011;39550;52.230;5.194;2023-07-29T13:19:53;5.20;;;3.00;;
53646;SDS011;39550;52.230;5.194;2023-07-29T13:22:19;4.05;;;2.83;;
53646;SDS011;39550;52.230;5.194;2023-07-29T13:24:45;5.40;;;3.30;;
53646;SDS011;39550;52.230;5.194;2023-07-29T13:27:13;5.57;;;3.28;;
53646;SDS011;39550;52.230;5.194;2023-07-29T13:29:39;5.22;;;3.22;;
53646;SDS011;39550;52.230;5.194;2023-07-29T13:32:08;4.97;;;2.88;;
53646;SDS011;39550;52.230;5.194;2023-07-29T13:34:34;4.63;;;3.20;;
53646;SDS011;39550;52.230;5.194;2023-07-29T13:36:59;4.70;;;3.17;;
53646;SDS011;39550;52.230;5.194;2023-07-29T13:39:28;4.00;;;2.90;;
53646;SDS011;39550;52.230;5.194;2023-07-29T13:41:54;4.10;;;3.05;;
53646;SDS011;39550;52.230;5.194;2023-07-29T13:44:22;5.05;;;3.42;;
53646;SDS011;39550;52.230;5.194;2023-07-29T13:46:48;4.88;;;3.30;;
53646;SDS011;39550;52.230;5.194;2023-07-29T13:49:13;4.18;;;3.00;;
53646;SDS011;39550;52.230;5.194;2023-07-29T13:51:39;4.63;;;3.17;;
53646;SDS011;39550;52.230;5.194;2023-07-29T13:54:04;4.85;;;3.30;;
53646;SDS011;39550;52.230;5.194;2023-07-29T13:56:29;4.75;;;3.40;;
53646;SDS011;39550;52.230;5.194;2023-07-29T13:58:55;5.28;;;3.58;;
53646;SDS011;39550;52.230;5.194;2023-07-29T14:01:23;5.35;;;3.45;;
53646;SDS011;39550;52.230;5.194;2023-07-29T14:03:49;6.47;;;3.83;;
53646;SDS011;39550;52.230;5.194;2023-07-29T14:06:14;5.45;;;3.53;;
53646;SDS011;39550;52.230;5.194;2023-07-29T14:08:39;5.85;;;3.60;;
53646;SDS011;39550;52.230;5.194;2023-07-29T14:11:06;4.28;;;3.22;;
53646;SDS011;39550;52.230;5.194;2023-07-29T14:13:32;5.53;;;3.80;;
53646;SDS011;39550;52.230;5.194;2023-07-29T14:15:59;6.00;;;3.95;;
53646;SDS011;39550;52.230;5.194;2023-07-29T14:18:26;4.68;;;3.42;;
53646;SDS011;39550;52.230;5.194;2023-07-29T14:20:51;4.35;;;3.35;;
53646;SDS011;39550;52.230;5.194;2023-07-29T14:23:17;5.57;;;3.60;;
53646;SDS011;39550;52.230;5.194;2023-07-29T14:25:42;4.95;;;3.78;;
53646;SDS011;39550;52.230;5.194;2023-07-29T14:28:07;5.20;;;3.85;;
53646;SDS011;39550;52.230;5.194;2023-07-29T14:30:39;5.32;;;3.97;;
53646;SDS011;39550;52.230;5.194;2023-07-29T14:33:44;4.93;;;3.30;;
53646;SDS011;39550;52.230;5.194;2023-07-29T14:39:37;4.72;;;3.13;;
53646;SDS011;39550;52.230;5.194;2023-07-29T14:44:28;7.85;;;5.10;;
53646;SDS011;39550;52.230;5.194;2023-07-29T14:47:11;9.52;;;5.40;;
53646;SDS011;39550;52.230;5.194;2023-07-29T14:52:18;8.93;;;6.00;;
53646;SDS011;39550;52.230;5.194;2023-07-29T14:54:43;8.50;;;5.82;;
53646;SDS011;39550;52.230;5.194;2023-07-29T14:57:09;8.85;;;6.50;;
53646;SDS011;39550;52.230;5.194;2023-07-29T14:59:35;8.55;;;6.45;;
53646;SDS011;39550;52.230;5.194;2023-07-29T15:02:00;8.70;;;6.18;;
53646;SDS011;39550;52.230;5.194;2023-07-29T15:04:36;9.50;;;7.13;;
53646;SDS011;39550;52.230;5.194;2023-07-29T15:07:04;8.50;;;6.68;;
53646;SDS011;39550;52.230;5.194;2023-07-29T15:09:29;9.63;;;6.78;;
53646;SDS011;39550;52.230;5.194;2023-07-29T15:11:55;9.73;;;6.82;;
53646;SDS011;39550;52.230;5.194;2023-07-29T15:14:21;10.80;;;7.80;;
53646;SDS011;39550;52.230;5.194;2023-07-29T15:16:46;10.57;;;6.78;;
53646;SDS011;39550;52.230;5.194;2023-07-29T15:19:12;7.55;;;5.72;;
53646;SDS011;39550;52.230;5.194;2023-07-29T15:21:41;9.18;;;6.32;;